Time;durP1;ratioP1;P1;durP2;ratioP2;P2;SDS_P1;SDS_P2;PMS_P1;PMS_P2;Temp;Humidity;BMP_temperature;BMP_pressure;BME280_temperature;BME280_humidity;BME280_pressure;Samples;Min_cycle;Max_cycle;Signal;HPM_P1;HPM_P2
2023/01/05 00:00:18;;;;;;;24.02;11.45;;;;;;;;;;5054038;28;20045;-42
2023/01/05 00:02:43;;;;;;;27.63;10.18;;;;;;;;;;5052974;28;20041;-42
2023/01/05 00:05:09;;;;;;;20.58;11.40;;;;;;;;;;5054272;28;20053;-42
2023/01/05 00:07:34;;;;;;;29.52;12.82;;;;;;;;;;5054042;28;20037;-44
2023/01/05 00:09:59;;;;;;;30.00;10.63;;;;;;;;;;5054315;28;20166;-42
2023/01/05 00:23:20;;;;;;;30.85;12.43;;;;;;;;;;5054130;28;20086;-42
2023/01/05 00:25:46;;;;;;;29.70;10.88;;;;;;;;;;5053598;28;20041;-42
2023/01/05 00:28:11;;;;;;;29.73;13.52;;;;;;;;;;5053923;28;20029;-42
2023/01/05 00:30:44;;;;;;;23.77;10.95;;;;;;;;;;5053904;28;20383;-42
2023/01/05 00:33:10;;;;;;;30.30;11.15;;;;;;;;;;5053985;28;20021;-43
2023/01/05 00:35:35;;;;;;;33.90;12.52;;;;;;;;;;5053420;28;20471;-42
2023/01/05 00:38:01;;;;;;;29.52;12.98;;;;;;;;;;5052286;28;20029;-42
2023/01/05 00:40:26;;;;;;;40.55;12.02;;;;;;;;;;5052089;28;20021;-42
2023/01/05 00:42:52;;;;;;;33.42;12.13;;;;;;;;;;5053500;28;20478;-42
2023/01/05 00:45:17;;;;;;;35.38;11.50;;;;;;;;;;5053339;28;20028;-42
2023/01/05 00:47:43;;;;;;;26.40;11.80;;;;;;;;;;5051925;28;20029;-42
2023/01/05 00:50:09;;;;;;;27.30;13.32;;;;;;;;;;5051976;28;20486;-42
2023/01/05 00:52:35;;;;;;;28.33;11.10;;;;;;;;;;5051914;28;20024;-42
2023/01/05 00:55:00;;;;;;;32.63;12.52;;;;;;;;;;5051907;28;20515;-42
2023/01/05 00:57:26;;;;;;;25.40;10.98;;;;;;;;;;5050768;28;20036;-42
2023/01/05 00:59:53;;;;;;;31.67;12.95;;;;;;;;;;5051761;28;20024;-42
2023/01/05 01:02:19;;;;;;;25.02;10.80;;;;;;;;;;5052890;28;20053;-42
2023/01/05 01:04:44;;;;;;;30.90;12.60;;;;;;;;;;5051624;28;20047;-43
2023/01/05 01:07:10;;;;;;;27.92;11.73;;;;;;;;;;5052983;28;20025;-42
2023/01/05 01:09:36;;;;;;;24.02;12.77;;;;;;;;;;5052804;28;20494;-42
2023/01/05 01:12:02;;;;;;;27.45;12.48;;;;;;;;;;5052835;28;20033;-42
2023/01/05 01:14:27;;;;;;;26.15;12.52;;;;;;;;;;5053042;28;20025;-42
2023/01/05 01:16:52;;;;;;;32.42;13.32;;;;;;;;;;5051604;28;20027;-42
2023/01/05 01:19:23;;;;;;;30.45;14.10;;;;;;;;;;5052858;28;20125;-42
2023/01/05 01:21:48;;;;;;;34.17;14.45;;;;;;;;;;5051442;28;20071;-43
2023/01/05 01:24:15;;;;;;;31.17;13.07;;;;;;;;;;5051206;28;20434;-42
2023/01/05 01:26:40;;;;;;;37.20;13.63;;;;;;;;;;5052566;28;20090;-42
2023/01/05 01:29:05;;;;;;;29.40;12.25;;;;;;;;;;5052576;28;20013;-42
2023/01/05 01:31:30;;;;;;;32.60;12.45;;;;;;;;;;5052482;28;20025;-42
2023/01/05 01:33:56;;;;;;;34.83;13.63;;;;;;;;;;5051170;28;20017;-43
2023/01/05 01:36:22;;;;;;;36.90;13.82;;;;;;;;;;5051078;28;20534;-42
2023/01/05 01:38:47;;;;;;;34.90;14.25;;;;;;;;;;5050935;28;20020;-42
2023/01/05 01:41:13;;;;;;;40.58;14.13;;;;;;;;;;5051111;28;20036;-41
2023/01/05 01:43:41;;;;;;;30.35;14.27;;;;;;;;;;5050955;28;20408;-42
2023/01/05 01:46:07;;;;;;;31.90;14.38;;;;;;;;;;5050877;28;20118;-41
2023/01/05 01:48:33;;;;;;;30.95;13.43;;;;;;;;;;5052028;28;20072;-42
2023/01/05 01:51:01;;;;;;;39.40;15.07;;;;;;;;;;5052145;28;20033;-42
2023/01/05 01:53:28;;;;;;;39.50;13.68;;;;;;;;;;5052116;28;20017;-42
2023/01/05 01:55:56;;;;;;;40.60;15.55;;;;;;;;;;5052021;28;20028;-41
2023/01/05 01:58:24;;;;;;;35.63;15.65;;;;;;;;;;5050844;28;20017;-42
2023/01/05 02:00:49;;;;;;;43.28;14.40;;;;;;;;;;5051622;28;20041;-42
2023/01/05 02:03:15;;;;;;;32.30;14.85;;;;;;;;;;5050713;28;20433;-42
2023/01/05 02:05:40;;;;;;;33.50;14.98;;;;;;;;;;5050497;28;20059;-42
2023/01/05 02:08:11;;;;;;;35.53;16.25;;;;;;;;;;5051959;28;20045;-42
2023/01/05 02:10:56;;;;;;;36.17;14.23;;;;;;;;;;5050424;28;20029;-42
2023/01/05 02:13:31;;;;;;;36.60;14.45;;;;;;;;;;5052027;28;20025;-42
2023/01/05 02:15:57;;;;;;;38.97;14.40;;;;;;;;;;5050496;28;20479;-42
2023/01/05 02:18:37;;;;;;;35.85;15.00;;;;;;;;;;5050359;28;20035;-42
2023/01/05 02:21:03;;;;;;;40.90;15.00;;;;;;;;;;5050367;28;20585;-43
2023/01/05 02:23:47;;;;;;;37.42;16.23;;;;;;;;;;5050257;28;20025;-42
2023/01/05 02:26:25;;;;;;;35.20;17.48;;;;;;;;;;5050321;28;20037;-43
2023/01/05 02:29:07;;;;;;;34.97;15.45;;;;;;;;;;5050148;28;20024;-43
2023/01/05 02:31:38;;;;;;;36.53;15.05;;;;;;;;;;5050208;28;20025;-42
2023/01/05 02:34:20;;;;;;;30.35;15.07;;;;;;;;;;5050256;28;20033;-42
2023/01/05 02:36:52;;;;;;;36.17;15.70;;;;;;;;;;5050107;28;20025;-42
2023/01/05 02:39:19;;;;;;;33.55;16.63;;;;;;;;;;5050060;28;20488;-42
2023/01/05 02:41:52;;;;;;;36.65;15.93;;;;;;;;;;5049932;28;20052;-42
2023/01/05 02:44:18;;;;;;;34.67;13.50;;;;;;;;;;5051497;28;20502;-41
2023/01/05 02:47:02;;;;;;;33.17;16.60;;;;;;;;;;5049938;28;20483;-42
2023/01/05 02:49:27;;;;;;;35.92;18.48;;;;;;;;;;5051184;28;20067;-42
2023/01/05 02:51:58;;;;;;;32.25;14.52;;;;;;;;;;5051491;28;20056;-42
2023/01/05 02:54:51;;;;;;;32.53;14.23;;;;;;;;;;5049995;28;20087;-42
2023/01/05 02:57:45;;;;;;;32.60;13.77;;;;;;;;;;5047999;28;20090;-42
2023/01/05 03:00:07;;;;;;;29.38;14.70;;;;;;;;;;5049634;28;20513;-42
2023/01/05 03:02:32;;;;;;;31.65;15.23;;;;;;;;;;5049915;28;20057;-42
2023/01/05 03:05:06;;;;;;;38.30;15.43;;;;;;;;;;5049738;28;20033;-42
2023/01/05 03:07:35;;;;;;;31.65;14.88;;;;;;;;;;5049785;28;20415;-42
2023/01/05 03:13:39;;;;;;;38.53;15.45;;;;;;;;;;5049708;28;20043;-42
2023/01/05 03:15:35;;;;;;;31.83;13.75;;;;;;;;;;5049690;28;20029;-42
2023/01/05 03:18:06;;;;;;;31.02;15.60;;;;;;;;;;5049594;28;20106;-42
2023/01/05 03:20:34;;;;;;;36.22;16.42;;;;;;;;;;5051686;28;20033;-42
2023/01/05 03:37:29;;;;;;;;;;;;;;;;;;5053826;28;20033;-42
2023/01/05 03:39:54;;;;;;;35.53;18.13;;;;;;;;;;5053245;28;19958;-42
2023/01/05 03:42:21;;;;;;;35.20;15.63;;;;;;;;;;5054874;28;20106;-42
2023/01/05 03:44:48;;;;;;;39.08;18.05;;;;;;;;;;5053150;28;20031;-42
2023/01/05 03:47:15;;;;;;;40.30;14.63;;;;;;;;;;5053206;28;20033;-42
2023/01/05 03:49:42;;;;;;;37.42;17.35;;;;;;;;;;5053057;28;20028;-42
2023/01/05 03:52:08;;;;;;;41.83;16.35;;;;;;;;;;5053163;28;20052;-43
2023/01/05 03:54:38;;;;;;;38.03;15.52;;;;;;;;;;5052976;28;20112;-42
2023/01/05 03:57:04;;;;;;;39.17;16.70;;;;;;;;;;5053133;28;20112;-42
2023/01/05 03:59:30;;;;;;;36.97;18.60;;;;;;;;;;5052937;28;20116;-42
2023/01/05 04:01:57;;;;;;;36.28;16.40;;;;;;;;;;5052706;28;20095;-42
2023/01/05 04:04:22;;;;;;;38.58;17.77;;;;;;;;;;5054228;28;20041;-42
2023/01/05 04:06:48;;;;;;;32.55;16.00;;;;;;;;;;5052807;28;20043;-42
2023/01/05 04:09:14;;;;;;;37.03;17.35;;;;;;;;;;5052747;28;20032;-42
2023/01/05 04:11:42;;;;;;;36.42;17.27;;;;;;;;;;5052757;28;20369;-42
2023/01/05 04:14:07;;;;;;;42.45;19.67;;;;;;;;;;5036087;28;20036;-42
2023/01/05 04:16:34;;;;;;;37.22;15.77;;;;;;;;;;5052607;28;20033;-41
2023/01/05 04:19:06;;;;;;;37.25;17.45;;;;;;;;;;5052599;28;20490;-42
2023/01/05 04:21:31;;;;;;;41.72;18.23;;;;;;;;;;5054031;28;20044;-43
2023/01/05 04:23:57;;;;;;;36.80;17.58;;;;;;;;;;5052454;28;20071;-42
2023/01/05 04:26:23;;;;;;;34.78;16.98;;;;;;;;;;5052552;28;20043;-42
2023/01/05 04:28:49;;;;;;;36.97;15.63;;;;;;;;;;5053590;28;20013;-42
2023/01/05 04:31:17;;;;;;;41.03;17.40;;;;;;;;;;5052321;28;20029;-42
2023/01/05 04:33:44;;;;;;;39.97;18.60;;;;;;;;;;5052343;28;20099;-42
2023/01/05 04:36:13;;;;;;;45.15;17.27;;;;;;;;;;5052215;28;20029;-42
2023/01/05 04:38:39;;;;;;;41.92;17.15;;;;;;;;;;5052068;28;20102;-42
2023/01/05 04:41:06;;;;;;;38.40;18.85;;;;;;;;;;5085733;28;20025;-42
2023/01/05 04:43:31;;;;;;;37.40;15.63;;;;;;;;;;5052022;28;20490;-43
2023/01/05 04:45:59;;;;;;;34.17;15.52;;;;;;;;;;5052123;28;20450;-42
2023/01/05 04:48:24;;;;;;;42.10;16.17;;;;;;;;;;5052033;28;20075;-41
2023/01/05 04:50:53;;;;;;;34.15;15.98;;;;;;;;;;5053265;28;20510;-42
2023/01/05 04:53:23;;;;;;;32.35;15.88;;;;;;;;;;5051991;28;20013;-42
2023/01/05 04:55:48;;;;;;;36.95;17.08;;;;;;;;;;5051828;28;20124;-42
2023/01/05 04:58:14;;;;;;;26.55;14.48;;;;;;;;;;5051796;28;20021;-42
2023/01/05 05:00:40;;;;;;;31.90;15.82;;;;;;;;;;5051774;28;20098;-42
2023/01/05 05:03:06;;;;;;;36.88;17.30;;;;;;;;;;5051849;28;20029;-42
2023/01/05 05:05:33;;;;;;;38.22;15.00;;;;;;;;;;5051627;28;20037;-42
2023/01/05 05:07:59;;;;;;;41.28;17.88;;;;;;;;;;5051677;28;20113;-42
2023/01/05 05:10:27;;;;;;;31.02;16.45;;;;;;;;;;5052028;28;20025;-42
2023/01/05 05:12:52;;;;;;;36.53;15.88;;;;;;;;;;5052831;28;20075;-42
2023/01/05 05:15:18;;;;;;;45.75;16.70;;;;;;;;;;5052833;28;20087;-42
2023/01/05 05:17:47;;;;;;;27.00;14.38;;;;;;;;;;5051430;28;20028;-42
2023/01/05 05:20:14;;;;;;;30.13;16.05;;;;;;;;;;5052796;28;20234;-42
2023/01/05 05:22:40;;;;;;;35.53;16.00;;;;;;;;;;5051416;28;20025;-41
2023/01/05 05:25:08;;;;;;;31.33;15.85;;;;;;;;;;5051323;28;20051;-42
2023/01/05 05:27:35;;;;;;;33.35;15.52;;;;;;;;;;5052744;28;20453;-42
2023/01/05 05:30:01;;;;;;;26.98;14.07;;;;;;;;;;5052622;28;20479;-44
2023/01/05 05:32:26;;;;;;;23.25;11.50;;;;;;;;;;5052437;28;20386;-42
2023/01/05 05:34:51;;;;;;;31.30;14.05;;;;;;;;;;5052712;28;20044;-42
2023/01/05 05:37:17;;;;;;;34.35;14.88;;;;;;;;;;5052651;28;20025;-41
2023/01/05 05:39:42;;;;;;;28.73;14.07;;;;;;;;;;5052004;28;20028;-42
2023/01/05 05:42:08;;;;;;;26.80;13.63;;;;;;;;;;5052395;28;20027;-42
2023/01/05 05:44:33;;;;;;;28.98;14.15;;;;;;;;;;5051675;28;20037;-42
2023/01/05 05:46:58;;;;;;;24.38;13.55;;;;;;;;;;5052541;28;20433;-42
2023/01/05 05:49:24;;;;;;;29.55;13.73;;;;;;;;;;5052192;28;20025;-41
2023/01/05 05:51:49;;;;;;;28.80;13.65;;;;;;;;;;5052041;28;20025;-41
2023/01/05 05:54:14;;;;;;;26.80;13.00;;;;;;;;;;5052364;28;20037;-42
2023/01/05 05:56:40;;;;;;;34.05;14.15;;;;;;;;;;5052074;28;20017;-42
2023/01/05 05:59:05;;;;;;;29.15;13.75;;;;;;;;;;5050851;28;20086;-42
2023/01/05 06:01:31;;;;;;;21.95;13.40;;;;;;;;;;5051838;28;20045;-42
2023/01/05 06:03:56;;;;;;;26.02;13.30;;;;;;;;;;5051827;28;20029;-42
2023/01/05 06:06:22;;;;;;;23.88;13.25;;;;;;;;;;5051951;28;20055;-42
2023/01/05 06:08:47;;;;;;;28.02;12.90;;;;;;;;;;5050501;28;20021;-42
2023/01/05 06:11:13;;;;;;;32.50;14.43;;;;;;;;;;5051862;28;20127;-42
2023/01/05 06:13:38;;;;;;;26.27;11.68;;;;;;;;;;5051786;28;20017;-42
2023/01/05 06:16:04;;;;;;;29.50;12.07;;;;;;;;;;5051636;28;20100;-42
2023/01/05 06:18:29;;;;;;;31.40;12.23;;;;;;;;;;5051687;28;20167;-42
2023/01/05 06:20:55;;;;;;;31.00;13.82;;;;;;;;;;5051647;28;20044;-42
2023/01/05 06:23:20;;;;;;;23.98;12.15;;;;;;;;;;5051616;28;20059;-43
2023/01/05 06:25:45;;;;;;;27.13;10.60;;;;;;;;;;5051493;28;20072;-42
2023/01/05 06:28:11;;;;;;;22.75;12.73;;;;;;;;;;5051848;28;20116;-42
2023/01/05 06:30:36;;;;;;;21.33;11.90;;;;;;;;;;5051410;28;20021;-42
2023/01/05 06:33:02;;;;;;;23.85;11.13;;;;;;;;;;5051583;28;20032;-42
2023/01/05 06:35:27;;;;;;;25.75;10.48;;;;;;;;;;5051519;28;20096;-42
2023/01/05 06:37:53;;;;;;;26.42;12.98;;;;;;;;;;5051333;28;20029;-42
2023/01/05 06:40:18;;;;;;;24.73;10.52;;;;;;;;;;5051413;28;20112;-43
2023/01/05 06:42:43;;;;;;;34.58;14.90;;;;;;;;;;5051329;28;20095;-42
2023/01/05 06:45:12;;;;;;;26.83;11.20;;;;;;;;;;5049964;28;20079;-42
2023/01/05 06:47:37;;;;;;;22.45;10.73;;;;;;;;;;5051461;28;20033;-42
2023/01/05 06:50:03;;;;;;;30.17;12.15;;;;;;;;;;5051407;28;20048;-42
2023/01/05 06:52:28;;;;;;;27.45;12.57;;;;;;;;;;5051250;28;20120;-42
2023/01/05 06:54:54;;;;;;;28.80;11.57;;;;;;;;;;5051296;28;20095;-42
2023/01/05 06:57:19;;;;;;;25.70;10.82;;;;;;;;;;5054838;28;20130;-42
2023/01/05 06:59:44;;;;;;;27.23;12.55;;;;;;;;;;5055496;28;20025;-42
2023/01/05 07:02:14;;;;;;;27.40;13.65;;;;;;;;;;5055282;28;20061;-42
2023/01/05 07:04:39;;;;;;;33.42;14.50;;;;;;;;;;5055367;28;20040;-42
2023/01/05 07:07:05;;;;;;;37.60;14.63;;;;;;;;;;5055481;28;20114;-42
2023/01/05 07:09:30;;;;;;;34.88;12.40;;;;;;;;;;5055311;28;20414;-42
2023/01/05 07:11:55;;;;;;;31.90;14.57;;;;;;;;;;5053900;28;20464;-43
2023/01/05 07:14:21;;;;;;;32.17;14.98;;;;;;;;;;5055461;28;20370;-42
2023/01/05 07:16:46;;;;;;;27.75;12.77;;;;;;;;;;5055358;28;20442;-42
2023/01/05 07:19:11;;;;;;;27.65;12.65;;;;;;;;;;5054968;28;20009;-42
2023/01/05 07:21:37;;;;;;;29.92;11.10;;;;;;;;;;5054993;28;20040;-42
2023/01/05 07:24:02;;;;;;;32.60;12.90;;;;;;;;;;5054904;28;20070;-42
2023/01/05 07:26:28;;;;;;;34.70;13.52;;;;;;;;;;5055104;28;20142;-42
2023/01/05 07:28:53;;;;;;;36.03;12.48;;;;;;;;;;5054763;28;20376;-42
2023/01/05 07:31:18;;;;;;;30.45;12.60;;;;;;;;;;5054801;28;20044;-42
2023/01/05 07:33:44;;;;;;;32.65;12.80;;;;;;;;;;5053794;28;20017;-42
2023/01/05 07:36:09;;;;;;;28.33;12.43;;;;;;;;;;5054801;28;20112;-42
2023/01/05 07:38:34;;;;;;;28.27;10.85;;;;;;;;;;5054619;28;20016;-41
2023/01/05 07:41:00;;;;;;;26.30;12.25;;;;;;;;;;5054994;28;20029;-42
2023/01/05 07:43:26;;;;;;;31.75;12.30;;;;;;;;;;5054933;28;20096;-42
2023/01/05 07:45:55;;;;;;;34.08;13.90;;;;;;;;;;5054613;28;20060;-41
2023/01/05 07:48:21;;;;;;;41.55;12.23;;;;;;;;;;5054433;28;20025;-41
2023/01/05 07:50:46;;;;;;;30.02;10.98;;;;;;;;;;5053139;28;20475;-41
2023/01/05 07:53:12;;;;;;;37.03;12.18;;;;;;;;;;5054724;28;20094;-41
2023/01/05 07:55:37;;;;;;;36.10;13.07;;;;;;;;;;5054291;28;20497;-41
2023/01/05 07:58:03;;;;;;;42.67;14.57;;;;;;;;;;5054256;28;20696;-41
2023/01/05 08:00:28;;;;;;;35.38;12.13;;;;;;;;;;5054186;28;20045;-42
2023/01/05 08:02:54;;;;;;;39.60;14.43;;;;;;;;;;5054207;28;20043;-41
2023/01/05 08:05:19;;;;;;;34.03;12.70;;;;;;;;;;5054430;28;20129;-41
2023/01/05 08:07:44;;;;;;;25.40;10.85;;;;;;;;;;5053644;28;20203;-41
2023/01/05 08:10:28;;;;;;;37.97;14.05;;;;;;;;;;5054072;28;20467;-41
2023/01/05 08:15:38;;;;;;;36.78;14.23;;;;;;;;;;5054274;28;20032;-42
2023/01/05 08:18:03;;;;;;;35.92;13.20;;;;;;;;;;5053794;28;20017;-42
2023/01/05 08:20:29;;;;;;;38.17;14.27;;;;;;;;;;5054010;28;20036;-43
2023/01/05 08:22:54;;;;;;;33.42;12.82;;;;;;;;;;5053876;28;20066;-42
2023/01/05 08:25:20;;;;;;;27.63;12.45;;;;;;;;;;5053644;28;20391;-42
2023/01/05 08:27:46;;;;;;;24.50;11.10;;;;;;;;;;5054017;28;20074;-42
2023/01/05 08:30:11;;;;;;;26.27;11.40;;;;;;;;;;5053785;28;20029;-42
2023/01/05 08:32:37;;;;;;;33.47;13.68;;;;;;;;;;5053775;28;20021;-42
2023/01/05 08:35:03;;;;;;;34.50;14.00;;;;;;;;;;5053970;28;20028;-42
2023/01/05 08:37:28;;;;;;;37.60;14.02;;;;;;;;;;5053471;28;20451;-42
2023/01/05 08:39:54;;;;;;;31.23;10.82;;;;;;;;;;5053758;28;20033;-42
2023/01/05 08:42:19;;;;;;;31.70;12.90;;;;;;;;;;5053846;28;20020;-41
2023/01/05 08:44:44;;;;;;;34.15;12.63;;;;;;;;;;5052288;28;20085;-41
2023/01/05 08:47:10;;;;;;;32.05;13.35;;;;;;;;;;5053435;28;20105;-42
2023/01/05 08:49:35;;;;;;;28.10;12.43;;;;;;;;;;5053262;28;20033;-42
2023/01/05 08:52:01;;;;;;;27.80;11.80;;;;;;;;;;5053304;28;20035;-42
2023/01/05 08:54:26;;;;;;;29.17;12.88;;;;;;;;;;5052040;28;20036;-42
2023/01/05 08:56:52;;;;;;;26.35;11.95;;;;;;;;;;5053213;28;20044;-42
2023/01/05 08:59:17;;;;;;;27.98;13.07;;;;;;;;;;5051914;28;20087;-42
2023/01/05 09:01:43;;;;;;;24.52;10.35;;;;;;;;;;5052944;28;20604;-42
2023/01/05 09:04:09;;;;;;;34.45;12.48;;;;;;;;;;5053034;28;20025;-41
2023/01/05 09:06:34;;;;;;;33.03;12.68;;;;;;;;;;5053018;28;20559;-42
2023/01/05 09:08:59;;;;;;;30.52;12.10;;;;;;;;;;5053113;28;20095;-42
2023/01/05 09:11:25;;;;;;;32.33;12.23;;;;;;;;;;5052993;28;20491;-42
2023/01/05 09:13:52;;;;;;;32.83;13.15;;;;;;;;;;5053124;28;20438;-42
2023/01/05 09:16:20;;;;;;;40.05;14.20;;;;;;;;;;5053080;28;20430;-42
2023/01/05 09:18:45;;;;;;;31.58;12.07;;;;;;;;;;5051852;28;20041;-43
2023/01/05 09:21:11;;;;;;;38.95;15.65;;;;;;;;;;5052730;28;20032;-42
2023/01/05 09:23:37;;;;;;;39.17;15.73;;;;;;;;;;5052722;28;20025;-42
2023/01/05 09:26:09;;;;;;;25.73;12.27;;;;;;;;;;5051745;28;20037;-42
2023/01/05 09:28:35;;;;;;;32.05;12.63;;;;;;;;;;5052760;28;20040;-42
2023/01/05 09:31:13;;;;;;;29.88;12.07;;;;;;;;;;5052710;28;20028;-42
2023/01/05 09:33:39;;;;;;;30.15;12.27;;;;;;;;;;5052435;28;20028;-42
2023/01/05 09:36:05;;;;;;;28.35;11.00;;;;;;;;;;5052793;28;20150;-42
2023/01/05 09:38:30;;;;;;;43.25;12.80;;;;;;;;;;5052735;28;20045;-42
2023/01/05 09:40:59;;;;;;;28.65;11.68;;;;;;;;;;5052405;28;20032;-42
2023/01/05 09:43:27;;;;;;;27.65;12.07;;;;;;;;;;5052348;28;20060;-42
2023/01/05 09:45:53;;;;;;;26.25;12.80;;;;;;;;;;5052193;28;20029;-42
2023/01/05 09:48:19;;;;;;;28.48;11.68;;;;;;;;;;5052499;28;20025;-42
2023/01/05 09:50:46;;;;;;;28.60;11.88;;;;;;;;;;5052098;28;20530;-42
2023/01/05 09:53:12;;;;;;;30.10;13.55;;;;;;;;;;5052154;28;20074;-42
2023/01/05 09:55:40;;;;;;;33.33;12.43;;;;;;;;;;5052059;28;20051;-42
2023/01/05 09:58:17;;;;;;;23.65;11.82;;;;;;;;;;5052054;28;20506;-42
2023/01/05 10:00:46;;;;;;;25.85;12.15;;;;;;;;;;5052080;28;20047;-42
2023/01/05 10:03:14;;;;;;;26.83;13.15;;;;;;;;;;5052061;28;20404;-42
2023/01/05 10:05:40;;;;;;;34.85;11.75;;;;;;;;;;5052039;28;20044;-42
2023/01/05 10:08:15;;;;;;;26.13;12.23;;;;;;;;;;5052147;28;20134;-41
2023/01/05 10:10:44;;;;;;;28.55;11.57;;;;;;;;;;5052008;28;20025;-42
2023/01/05 10:13:23;;;;;;;26.55;11.30;;;;;;;;;;5051761;28;20036;-42
2023/01/05 10:15:51;;;;;;;23.13;10.55;;;;;;;;;;5051689;28;20021;-42
2023/01/05 10:18:18;;;;;;;31.27;13.10;;;;;;;;;;5051615;28;20444;-41
2023/01/05 10:20:46;;;;;;;27.75;12.18;;;;;;;;;;5052030;28;20475;-42
2023/01/05 10:23:19;;;;;;;33.92;13.45;;;;;;;;;;5051690;28;20024;-41
2023/01/05 10:25:45;;;;;;;;;;;;;;;;;;5052129;28;20665;-42
2023/01/05 10:28:22;;;;;;;30.95;13.30;;;;;;;;;;5051871;28;19909;-42
2023/01/05 10:31:11;;;;;;;31.15;12.38;;;;;;;;;;5051333;28;20032;-41
2023/01/05 10:33:43;;;;;;;26.75;12.25;;;;;;;;;;5048331;28;20041;-42
2023/01/05 10:36:27;;;;;;;36.00;13.95;;;;;;;;;;5051530;28;20053;-41
2023/01/05 10:39:05;;;;;;;31.27;13.90;;;;;;;;;;5051288;28;20451;-42
2023/01/05 10:41:37;;;;;;;23.02;9.60;;;;;;;;;;5051714;28;20420;-41
2023/01/05 10:44:07;;;;;;;39.25;12.45;;;;;;;;;;5051397;28;20051;-41
2023/01/05 10:46:34;;;;;;;25.75;12.82;;;;;;;;;;5051320;28;20064;-42
2023/01/05 10:48:59;;;;;;;29.52;12.48;;;;;;;;;;5051254;28;20398;-42
2023/01/05 10:51:25;;;;;;;25.08;10.98;;;;;;;;;;5051627;28;20035;-42
2023/01/05 10:53:52;;;;;;;23.42;10.75;;;;;;;;;;5051465;28;20480;-42
2023/01/05 10:56:28;;;;;;;34.30;12.55;;;;;;;;;;5051303;28;20467;-42
2023/01/05 10:59:14;;;;;;;31.15;11.75;;;;;;;;;;5051098;28;20546;-42
2023/01/05 11:01:43;;;;;;;27.05;11.80;;;;;;;;;;5051011;28;20049;-41
2023/01/05 11:04:16;;;;;;;31.20;12.77;;;;;;;;;;5051124;28;20127;-42
2023/01/05 11:06:42;;;;;;;41.28;16.42;;;;;;;;;;5051378;28;20104;-42
2023/01/05 11:09:14;;;;;;;27.42;12.27;;;;;;;;;;5051362;28;20105;-42
2023/01/05 11:11:39;;;;;;;31.63;10.55;;;;;;;;;;5051343;28;20051;-43
2023/01/05 11:14:05;;;;;;;28.48;13.43;;;;;;;;;;5051311;28;20040;-42
2023/01/05 11:16:32;;;;;;;29.80;13.70;;;;;;;;;;5051367;28;20418;-42
2023/01/05 11:19:02;;;;;;;35.03;13.40;;;;;;;;;;5050987;28;20108;-43
2023/01/05 11:21:34;;;;;;;36.75;13.68;;;;;;;;;;5050984;28;20025;-42
2023/01/05 11:24:00;;;;;;;32.67;13.48;;;;;;;;;;5050860;28;20041;-43
2023/01/05 11:26:26;;;;;;;31.33;13.18;;;;;;;;;;5051130;28;20033;-42
2023/01/05 11:28:57;;;;;;;30.98;13.32;;;;;;;;;;5050837;28;20498;-42
2023/01/05 11:31:24;;;;;;;24.77;11.35;;;;;;;;;;5051249;28;20056;-42
2023/01/05 11:33:57;;;;;;;25.85;10.40;;;;;;;;;;5050862;28;20017;-41
2023/01/05 11:36:23;;;;;;;27.58;13.10;;;;;;;;;;5050896;28;20095;-42
2023/01/05 11:38:53;;;;;;;34.78;13.57;;;;;;;;;;5050808;28;20033;-41
2023/01/05 11:41:20;;;;;;;28.40;11.60;;;;;;;;;;5049824;28;20494;-41
2023/01/05 11:43:46;;;;;;;32.47;11.65;;;;;;;;;;5054745;28;20032;-42
2023/01/05 11:46:13;;;;;;;32.45;11.68;;;;;;;;;;5054548;28;20426;-42
2023/01/05 11:48:40;;;;;;;27.15;12.13;;;;;;;;;;5054633;28;20021;-42
2023/01/05 11:51:06;;;;;;;28.27;11.40;;;;;;;;;;5054535;28;20074;-42
2023/01/05 11:53:31;;;;;;;26.38;10.52;;;;;;;;;;5054526;28;20017;-42
2023/01/05 11:56:17;;;;;;;29.27;11.73;;;;;;;;;;5054379;28;20044;-42
2023/01/05 11:58:44;;;;;;;25.05;10.95;;;;;;;;;;5053929;28;20048;-42
2023/01/05 12:01:22;;;;;;;29.00;11.68;;;;;;;;;;5054393;28;20037;-42
2023/01/05 12:03:56;;;;;;;27.48;11.95;;;;;;;;;;5054478;28;20029;-42
2023/01/05 12:06:35;;;;;;;30.98;12.52;;;;;;;;;;5054451;28;20075;-42
2023/01/05 12:09:14;;;;;;;28.13;10.85;;;;;;;;;;5054033;28;20021;-42
2023/01/05 12:12:12;;;;;;;31.85;12.85;;;;;;;;;;5054192;28;20037;-42
2023/01/05 12:14:37;;;;;;;16.95;8.90;;;;;;;;;;5041720;28;20091;-41
2023/01/05 12:17:11;;;;;;;23.38;11.00;;;;;;;;;;5053901;28;20025;-42
2023/01/05 12:19:55;;;;;;;36.35;13.05;;;;;;;;;;5053893;28;20044;-42
2023/01/05 12:22:40;;;;;;;28.20;11.65;;;;;;;;;;5053939;28;20104;-41
2023/01/05 12:25:07;;;;;;;28.05;11.73;;;;;;;;;;5054314;28;20033;-42
2023/01/05 12:27:51;;;;;;;32.72;13.98;;;;;;;;;;5053805;28;20021;-41
2023/01/05 12:30:34;;;;;;;29.35;12.57;;;;;;;;;;5054130;28;20090;-42
2023/01/05 12:33:20;;;;;;;26.95;11.88;;;;;;;;;;5053955;28;20102;-42
2023/01/05 12:36:00;;;;;;;30.17;11.23;;;;;;;;;;5053684;28;20065;-42
2023/01/05 12:38:35;;;;;;;23.25;10.10;;;;;;;;;;5053595;28;20045;-42
2023/01/05 12:41:16;;;;;;;34.08;12.25;;;;;;;;;;5053763;28;20150;-42
2023/01/05 12:44:04;;;;;;;25.13;12.18;;;;;;;;;;5053401;28;20095;-42
2023/01/05 12:46:37;;;;;;;26.15;11.50;;;;;;;;;;5053437;28;20099;-42
2023/01/05 12:49:05;;;;;;;23.92;11.25;;;;;;;;;;5053656;28;20029;-42
2023/01/05 12:51:39;;;;;;;25.00;11.70;;;;;;;;;;5053436;28;20111;-42
2023/01/05 12:54:13;;;;;;;23.85;11.02;;;;;;;;;;5051950;28;20076;-42
2023/01/05 12:56:40;;;;;;;22.63;9.60;;;;;;;;;;5053319;28;20364;-42
2023/01/05 12:59:13;;;;;;;26.65;12.15;;;;;;;;;;5053160;28;20036;-41
2023/01/05 13:01:44;;;;;;;28.30;9.38;;;;;;;;;;5053067;28;20102;-41
2023/01/05 13:04:20;;;;;;;30.33;10.40;;;;;;;;;;5051990;28;20428;-42
2023/01/05 13:06:47;;;;;;;26.88;10.38;;;;;;;;;;5052983;28;20041;-42
2023/01/05 13:09:19;;;;;;;21.73;10.18;;;;;;;;;;5052973;28;20029;-41
2023/01/05 13:11:52;;;;;;;28.63;10.83;;;;;;;;;;5052937;28;20043;-42
2023/01/05 13:14:19;;;;;;;23.05;9.32;;;;;;;;;;5053046;28;20025;-42
2023/01/05 13:16:47;;;;;;;24.63;10.55;;;;;;;;;;5053053;28;20609;-42
2023/01/05 13:19:22;;;;;;;28.58;11.55;;;;;;;;;;5053108;28;20044;-42
2023/01/05 13:21:49;;;;;;;28.08;11.27;;;;;;;;;;5052804;28;20029;-41
2023/01/05 13:24:32;;;;;;;23.95;10.77;;;;;;;;;;5052695;28;20455;-41
2023/01/05 13:26:58;;;;;;;26.65;11.10;;;;;;;;;;5052640;28;20142;-43
2023/01/05 13:29:26;;;;;;;16.50;8.18;;;;;;;;;;5052572;28;20017;-41
2023/01/05 13:32:11;;;;;;;27.95;11.68;;;;;;;;;;5052608;28;20122;-42
2023/01/05 13:34:36;;;;;;;27.15;9.40;;;;;;;;;;5052814;28;20060;-42
2023/01/05 13:37:12;;;;;;;26.10;10.23;;;;;;;;;;5052664;28;20463;-42
2023/01/05 13:39:52;;;;;;;23.30;9.43;;;;;;;;;;5052475;28;20029;-42
2023/01/05 13:42:36;;;;;;;29.75;10.05;;;;;;;;;;5052420;28;20033;-43
2023/01/05 13:45:14;;;;;;;23.15;10.85;;;;;;;;;;5052189;28;20037;-41
2023/01/05 13:47:40;;;;;;;21.80;11.43;;;;;;;;;;5052372;28;20021;-42
2023/01/05 13:50:24;;;;;;;24.30;9.90;;;;;;;;;;5052476;28;20017;-42
2023/01/05 13:53:05;;;;;;;21.75;12.05;;;;;;;;;;5052131;28;20033;-42
2023/01/05 13:55:32;;;;;;;22.70;10.63;;;;;;;;;;5052161;28;20616;-42
2023/01/05 13:58:02;;;;;;;26.77;11.07;;;;;;;;;;5051970;28;20092;-41
2023/01/05 14:00:40;;;;;;;29.38;9.80;;;;;;;;;;5051877;28;20037;-42
2023/01/05 14:03:18;;;;;;;25.15;10.85;;;;;;;;;;5051930;28;20487;-42
2023/01/05 14:05:58;;;;;;;17.52;10.02;;;;;;;;;;5051469;28;20083;-42
2023/01/05 14:08:31;;;;;;;18.08;9.35;;;;;;;;;;5051903;28;20029;-42
2023/01/05 14:11:07;;;;;;;27.45;10.05;;;;;;;;;;5051799;28;20025;-42
2023/01/05 14:13:53;;;;;;;21.13;9.60;;;;;;;;;;5051837;28;20108;-42
2023/01/05 14:16:34;;;;;;;18.20;10.27;;;;;;;;;;5051568;28;20032;-42
2023/01/05 14:19:19;;;;;;;20.20;9.18;;;;;;;;;;5051938;28;20095;-42
2023/01/05 14:21:52;;;;;;;23.48;8.60;;;;;;;;;;5051688;28;20060;-42
2023/01/05 14:24:36;;;;;;;21.67;9.40;;;;;;;;;;5051899;28;20475;-42
2023/01/05 14:27:11;;;;;;;30.25;10.00;;;;;;;;;;5051509;28;20033;-42
2023/01/05 14:29:39;;;;;;;22.73;10.10;;;;;;;;;;5051588;28;20025;-42
2023/01/05 14:32:06;;;;;;;20.33;8.88;;;;;;;;;;5051824;28;20032;-42
2023/01/05 14:34:32;;;;;;;20.40;9.43;;;;;;;;;;5051697;28;20021;-41
2023/01/05 14:37:02;;;;;;;22.10;9.48;;;;;;;;;;5051476;28;20021;-42
2023/01/05 14:39:36;;;;;;;17.63;9.95;;;;;;;;;;5051756;28;20029;-42
2023/01/05 14:42:14;;;;;;;21.85;8.63;;;;;;;;;;5051372;28;20514;-42
2023/01/05 14:44:42;;;;;;;23.77;8.40;;;;;;;;;;5051332;28;20480;-42
2023/01/05 14:47:08;;;;;;;18.00;9.60;;;;;;;;;;5051319;28;20387;-42
2023/01/05 14:49:36;;;;;;;24.58;10.13;;;;;;;;;;5051318;28;20032;-43
2023/01/05 14:52:04;;;;;;;25.50;9.85;;;;;;;;;;5051285;28;20067;-42
2023/01/05 14:54:35;;;;;;;22.10;9.95;;;;;;;;;;5051317;28;20471;-41
2023/01/05 14:57:19;;;;;;;17.25;8.43;;;;;;;;;;5051104;28;20032;-43
2023/01/05 14:59:46;;;;;;;24.27;9.25;;;;;;;;;;5051221;28;20033;-41